sensor_id;sensor_type;location;lat;lon;timestamp;pressure;altitude;pressure_sealevel;temperature;humidity
32747;BME280;19118;50.860;13.662;2023-02-14T00:03:29;98995.09;;;2.67;100.00
32747;BME280;19118;50.860;13.662;2023-02-14T00:08:30;98992.38;;;2.68;100.00
32747;BME280;19118;50.860;13.662;2023-02-14T00:13:30;98987.16;;;2.68;100.00
32747;BME280;19118;50.860;13.662;2023-02-14T00:18:31;98982.38;;;2.75;100.00
32747;BME280;19118;50.860;13.662;2023-02-14T00:23:50;98988.09;;;2.67;100.00
32747;BME280;19118;50.860;13.662;2023-02-14T00:28:50;98983.19;;;2.62;100.00
32747;BME280;19118;50.860;13.662;2023-02-14T00:33:50;98972.91;;;2.59;100.00
32747;BME280;19118;50.860;13.662;2023-02-14T00:38:51;98981.09;;;2.68;100.00
32747;BME280;19118;50.860;13.662;2023-02-14T00:43:52;98984.91;;;2.49;100.00
32747;BME280;19118;50.860;13.662;2023-02-14T00:48:53;98972.59;;;2.51;100.00
32747;BME280;19118;50.860;13.662;2023-02-14T00:53:53;98975.38;;;2.48;100.00
32747;BME280;19118;50.860;13.662;2023-02-14T00:58:54;98960.16;;;2.55;100.00
32747;BME280;19118;50.860;13.662;2023-02-14T01:03:54;98961.31;;;2.51;100.00
32747;BME280;19118;50.860;13.662;2023-02-14T01:08:54;98958.59;;;2.52;100.00
32747;BME280;19118;50.860;13.662;2023-02-14T01:13:56;98953.41;;;2.38;100.00
32747;BME280;19118;50.860;13.662;2023-02-14T01:18:59;98959.28;;;2.42;100.00
32747;BME280;19118;50.860;13.662;2023-02-14T01:24:02;98953.38;;;2.52;100.00
32747;BME280;19118;50.860;13.662;2023-02-14T01:29:03;98949.41;;;2.59;100.00
32747;BME280;19118;50.860;13.662;2023-02-14T01:34:04;98952.22;;;2.56;100.00
32747;BME280;19118;50.860;13.662;2023-02-14T01:39:07;98939.25;;;2.55;100.00
32747;BME280;19118;50.860;13.662;2023-02-14T01:49:31;98929.03;;;2.52;100.00
32747;BME280;19118;50.860;13.662;2023-02-14T01:54:37;98933.41;;;2.51;100.00
32747;BME280;19118;50.860;13.662;2023-02-14T01:59:43;98921.47;;;2.47;100.00
32747;BME280;19118;50.860;13.662;2023-02-14T02:04:45;98926.31;;;2.53;100.00
32747;BME280;19118;50.860;13.662;2023-02-14T02:09:53;98922.81;;;2.40;100.00
32747;BME280;19118;50.860;13.662;2023-02-14T02:14:57;98919.81;;;2.46;100.00
32747;BME280;19118;50.860;13.662;2023-02-14T02:20:40;98912.91;;;2.45;100.00
32747;BME280;19118;50.860;13.662;2023-02-14T02:36:46;98903.09;;;2.49;100.00
32747;BME280;19118;50.860;13.662;2023-02-14T02:42:00;98891.41;;;2.42;100.00
32747;BME280;19118;50.860;13.662;2023-02-14T02:47:08;98899.72;;;2.34;100.00
32747;BME280;19118;50.860;13.662;2023-02-14T02:52:23;98889.28;;;2.34;100.00
32747;BME280;19118;50.860;13.662;2023-02-14T02:57:45;98884.59;;;2.39;100.00
32747;BME280;19118;50.860;13.662;2023-02-14T03:02:50;98878.81;;;2.34;100.00
32747;BME280;19118;50.860;13.662;2023-02-14T03:08:10;98869.22;;;2.34;100.00
32747;BME280;19118;50.860;13.662;2023-02-14T03:24:12;98866.31;;;2.39;100.00
32747;BME280;19118;50.860;13.662;2023-02-14T03:29:26;98862.97;;;2.37;100.00
32747;BME280;19118;50.860;13.662;2023-02-14T03:34:36;98857.94;;;2.34;100.00
32747;BME280;19118;50.860;13.662;2023-02-14T03:39:52;98855.44;;;2.32;100.00
32747;BME280;19118;50.860;13.662;2023-02-14T03:44:59;98848.56;;;2.44;100.00
32747;BME280;19118;50.860;13.662;2023-02-14T03:50:06;98837.63;;;2.39;100.00
32747;BME280;19118;50.860;13.662;2023-02-14T03:55:08;98820.56;;;2.33;100.00
32747;BME280;19118;50.860;13.662;2023-02-14T04:00:10;98825.38;;;2.27;100.00
32747;BME280;19118;50.860;13.662;2023-02-14T04:05:21;98817.31;;;2.30;100.00
32747;BME280;19118;50.860;13.662;2023-02-14T04:10:25;98834.44;;;2.34;100.00
32747;BME280;19118;50.860;13.662;2023-02-14T04:15:25;98830.38;;;2.30;100.00
32747;BME280;19118;50.860;13.662;2023-02-14T04:20:27;98841.66;;;2.30;100.00
32747;BME280;19118;50.860;13.662;2023-02-14T04:25:28;98827.84;;;2.16;100.00
32747;BME280;19118;50.860;13.662;2023-02-14T04:30:28;98823.03;;;2.22;100.00
32747;BME280;19118;50.860;13.662;2023-02-14T04:35:29;98819.09;;;2.02;100.00
32747;BME280;19118;50.860;13.662;2023-02-14T04:40:30;98813.63;;;2.07;100.00
32747;BME280;19118;50.860;13.662;2023-02-14T04:45:30;98806.97;;;2.16;100.00
32747;BME280;19118;50.860;13.662;2023-02-14T04:50:31;98801.75;;;2.16;100.00
32747;BME280;19118;50.860;13.662;2023-02-14T04:55:31;98777.50;;;2.14;100.00
32747;BME280;19118;50.860;13.662;2023-02-14T05:00:31;98781.50;;;2.19;100.00
32747;BME280;19118;50.860;13.662;2023-02-14T05:05:32;98786.09;;;2.16;100.00
32747;BME280;19118;50.860;13.662;2023-02-14T05:10:32;98773.09;;;2.01;100.00
32747;BME280;19118;50.860;13.662;2023-02-14T05:15:32;98767.28;;;2.11;100.00
32747;BME280;19118;50.860;13.662;2023-02-14T05:20:33;98760.38;;;2.10;100.00
32747;BME280;19118;50.860;13.662;2023-02-14T05:25:33;98759.88;;;2.04;100.00
32747;BME280;19118;50.860;13.662;2023-02-14T05:30:34;98755.38;;;2.07;100.00
32747;BME280;19118;50.860;13.662;2023-02-14T05:35:34;98754.53;;;2.06;100.00
32747;BME280;19118;50.860;13.662;2023-02-14T05:40:34;98747.00;;;2.01;100.00
32747;BME280;19118;50.860;13.662;2023-02-14T05:45:35;98738.03;;;2.06;100.00
32747;BME280;19118;50.860;13.662;2023-02-14T05:50:35;98742.31;;;2.07;100.00
32747;BME280;19118;50.860;13.662;2023-02-14T05:55:36;98730.22;;;2.06;100.00
32747;BME280;19118;50.860;13.662;2023-02-14T06:00:36;98725.00;;;2.06;100.00
32747;BME280;19118;50.860;13.662;2023-02-14T06:05:37;98725.53;;;2.11;100.00
32747;BME280;19118;50.860;13.662;2023-02-14T06:10:37;98731.88;;;2.07;100.00
32747;BME280;19118;50.860;13.662;2023-02-14T06:15:38;98733.06;;;2.15;100.00
32747;BME280;19118;50.860;13.662;2023-02-14T06:20:38;98718.25;;;2.16;100.00
32747;BME280;19118;50.860;13.662;2023-02-14T06:25:38;98717.47;;;2.14;100.00
32747;BME280;19118;50.860;13.662;2023-02-14T06:30:39;98713.84;;;2.16;100.00
32747;BME280;19118;50.860;13.662;2023-02-14T06:35:40;98726.78;;;2.18;100.00
32747;BME280;19118;50.860;13.662;2023-02-14T06:40:40;98729.91;;;2.23;100.00
32747;BME280;19118;50.860;13.662;2023-02-14T06:45:40;98725.34;;;2.39;100.00
32747;BME280;19118;50.860;13.662;2023-02-14T06:50:42;98723.69;;;2.38;100.00
32747;BME280;19118;50.860;13.662;2023-02-14T06:55:43;98727.03;;;2.40;100.00
32747;BME280;19118;50.860;13.662;2023-02-14T07:00:43;98720.75;;;2.55;100.00
32747;BME280;19118;50.860;13.662;2023-02-14T07:05:43;98724.94;;;2.58;100.00
32747;BME280;19118;50.860;13.662;2023-02-14T07:10:44;98712.38;;;2.76;100.00
32747;BME280;19118;50.860;13.662;2023-02-14T07:15:46;98707.69;;;2.68;100.00
32747;BME280;19118;50.860;13.662;2023-02-14T07:20:46;98707.16;;;2.76;100.00
32747;BME280;19118;50.860;13.662;2023-02-14T07:25:48;98709.03;;;2.86;100.00
32747;BME280;19118;50.860;13.662;2023-02-14T07:30:48;98700.16;;;2.89;100.00
32747;BME280;19118;50.860;13.662;2023-02-14T07:35:48;98691.59;;;2.87;100.00
32747;BME280;19118;50.860;13.662;2023-02-14T07:40:52;98691.06;;;2.82;100.00
32747;BME280;19118;50.860;13.662;2023-02-14T07:45:52;98684.81;;;2.84;100.00
32747;BME280;19118;50.860;13.662;2023-02-14T07:50:53;98685.91;;;2.93;100.00
32747;BME280;19118;50.860;13.662;2023-02-14T07:55:56;98675.13;;;3.10;100.00
32747;BME280;19118;50.860;13.662;2023-02-14T08:00:56;98675.91;;;3.24;100.00
32747;BME280;19118;50.860;13.662;2023-02-14T08:05:57;98670.38;;;3.39;100.00
32747;BME280;19118;50.860;13.662;2023-02-14T08:10:57;98673.88;;;3.51;100.00
32747;BME280;19118;50.860;13.662;2023-02-14T08:15:58;98677.09;;;3.43;100.00
32747;BME280;19118;50.860;13.662;2023-02-14T08:21:06;98677.41;;;3.39;100.00
32747;BME280;19118;50.860;13.662;2023-02-14T08:26:08;98675.78;;;3.49;100.00
32747;BME280;19118;50.860;13.662;2023-02-14T08:31:08;98688.44;;;3.55;100.00
32747;BME280;19118;50.860;13.662;2023-02-14T08:36:09;98692.75;;;3.67;100.00
32747;BME280;19118;50.860;13.662;2023-02-14T08:41:10;98701.88;;;3.62;100.00
32747;BME280;19118;50.860;13.662;2023-02-14T08:46:11;98687.81;;;3.75;100.00
32747;BME280;19118;50.860;13.662;2023-02-14T08:51:13;98685.59;;;3.58;100.00
32747;BME280;19118;50.860;13.662;2023-02-14T08:56:13;98693.38;;;3.71;100.00
32747;BME280;19118;50.860;13.662;2023-02-14T09:01:16;98686.19;;;3.86;100.00
32747;BME280;19118;50.860;13.662;2023-02-14T09:06:16;98689.00;;;3.83;100.00
32747;BME280;19118;50.860;13.662;2023-02-14T09:11:22;98698.13;;;4.01;100.00
32747;BME280;19118;50.860;13.662;2023-02-14T09:16:23;98700.19;;;4.08;100.00
32747;BME280;19118;50.860;13.662;2023-02-14T09:21:25;98695.09;;;4.29;100.00
32747;BME280;19118;50.860;13.662;2023-02-14T09:26:26;98701.75;;;4.22;100.00
32747;BME280;19118;50.860;13.662;2023-02-14T09:31:27;98712.38;;;4.32;100.00
32747;BME280;19118;50.860;13.662;2023-02-14T09:36:28;98706.66;;;4.38;100.00
32747;BME280;19118;50.860;13.662;2023-02-14T09:46:29;98709.25;;;4.27;100.00
32747;BME280;19118;50.860;13.662;2023-02-14T09:51:36;98720.16;;;4.56;100.00
32747;BME280;19118;50.860;13.662;2023-02-14T09:56:57;98712.53;;;4.97;100.00
32747;BME280;19118;50.860;13.662;2023-02-14T10:17:56;98718.25;;;5.03;100.00
32747;BME280;19118;50.860;13.662;2023-02-14T10:23:04;98714.19;;;5.21;100.00
32747;BME280;19118;50.860;13.662;2023-02-14T10:28:10;98720.16;;;5.23;100.00
32747;BME280;19118;50.860;13.662;2023-02-14T10:33:18;98719.47;;;5.10;100.00
32747;BME280;19118;50.860;13.662;2023-02-14T10:43:56;98715.91;;;5.43;100.00
32747;BME280;19118;50.860;13.662;2023-02-14T10:54:24;98715.91;;;5.97;100.00
32747;BME280;19118;50.860;13.662;2023-02-14T11:04:44;98718.88;;;6.04;100.00
32747;BME280;19118;50.860;13.662;2023-02-14T11:09:46;98707.91;;;5.99;100.00
32747;BME280;19118;50.860;13.662;2023-02-14T11:14:47;98707.34;;;5.84;100.00
32747;BME280;19118;50.860;13.662;2023-02-14T11:19:59;98704.38;;;6.09;100.00
32747;BME280;19118;50.860;13.662;2023-02-14T11:25:22;98702.91;;;5.96;100.00
32747;BME280;19118;50.860;13.662;2023-02-14T11:30:33;98705.88;;;6.02;100.00
32747;BME280;19118;50.860;13.662;2023-02-14T11:35:34;98693.38;;;5.95;100.00
32747;BME280;19118;50.860;13.662;2023-02-14T11:40:37;98687.66;;;6.31;100.00
32747;BME280;19118;50.860;13.662;2023-02-14T11:45:43;98686.56;;;6.34;100.00
32747;BME280;19118;50.860;13.662;2023-02-14T11:50:53;98684.19;;;6.52;100.00
32747;BME280;19118;50.860;13.662;2023-02-14T11:55:56;98684.75;;;6.55;100.00
32747;BME280;19118;50.860;13.662;2023-02-14T12:00:58;98668.00;;;6.26;100.00
32747;BME280;19118;50.860;13.662;2023-02-14T12:05:59;98670.31;;;5.98;100.00
32747;BME280;19118;50.860;13.662;2023-02-14T12:11:16;98660.19;;;6.35;100.00
32747;BME280;19118;50.860;13.662;2023-02-14T12:16:44;98651.47;;;5.93;100.00
32747;BME280;19118;50.860;13.662;2023-02-14T12:21:43;98652.09;;;6.48;100.00
32747;BME280;19118;50.860;13.662;2023-02-14T12:32:00;98637.22;;;6.58;100.00
32747;BME280;19118;50.860;13.662;2023-02-14T12:37:09;98625.00;;;6.48;100.00
32747;BME280;19118;50.860;13.662;2023-02-14T12:42:31;98617.34;;;6.45;100.00
32747;BME280;19118;50.860;13.662;2023-02-14T12:53:28;98606.88;;;6.54;100.00
32747;BME280;19118;50.860;13.662;2023-02-14T13:09:32;98584.22;;;7.22;100.00
32747;BME280;19118;50.860;13.662;2023-02-14T13:14:52;98581.44;;;7.34;100.00
32747;BME280;19118;50.860;13.662;2023-02-14T13:25:27;98586.41;;;6.98;100.00
32747;BME280;19118;50.860;13.662;2023-02-14T13:30:34;98572.63;;;6.65;100.00
32747;BME280;19118;50.860;13.662;2023-02-14T13:35:36;98565.91;;;6.92;100.00
32747;BME280;19118;50.860;13.662;2023-02-14T13:40:36;98566.16;;;6.89;100.00
32747;BME280;19118;50.860;13.662;2023-02-14T13:45:51;98565.28;;;6.59;100.00
32747;BME280;19118;50.860;13.662;2023-02-14T13:51:03;98554.22;;;6.65;100.00
32747;BME280;19118;50.860;13.662;2023-02-14T14:01:36;98569.25;;;7.04;100.00
32747;BME280;19118;50.860;13.662;2023-02-14T14:17:26;98553.72;;;6.41;100.00
32747;BME280;19118;50.860;13.662;2023-02-14T14:22:27;98542.38;;;6.00;100.00
32747;BME280;19118;50.860;13.662;2023-02-14T14:32:35;98524.38;;;5.96;100.00
32747;BME280;19118;50.860;13.662;2023-02-14T14:37:48;98526.44;;;5.92;100.00
32747;BME280;19118;50.860;13.662;2023-02-14T14:42:49;98519.09;;;5.75;100.00
32747;BME280;19118;50.860;13.662;2023-02-14T14:47:53;98512.94;;;5.55;100.00
32747;BME280;19118;50.860;13.662;2023-02-14T14:52:59;98506.06;;;5.22;100.00
32747;BME280;19118;50.860;13.662;2023-02-14T14:58:02;98502.63;;;5.21;100.00
32747;BME280;19118;50.860;13.662;2023-02-14T15:13:44;98486.78;;;4.48;100.00
32747;BME280;19118;50.860;13.662;2023-02-14T15:18:59;98481.13;;;4.20;100.00
32747;BME280;19118;50.860;13.662;2023-02-14T15:24:11;98481.00;;;3.99;100.00
32747;BME280;19118;50.860;13.662;2023-02-14T15:29:27;98474.09;;;3.65;100.00
32747;BME280;19118;50.860;13.662;2023-02-14T15:34:30;98466.59;;;3.49;100.00
32747;BME280;19118;50.860;13.662;2023-02-14T15:39:35;98468.69;;;3.21;100.00
32747;BME280;19118;50.860;13.662;2023-02-14T15:44:36;98479.91;;;3.00;100.00
32747;BME280;19118;50.860;13.662;2023-02-14T15:49:37;98476.31;;;2.66;100.00
32747;BME280;19118;50.860;13.662;2023-02-14T15:54:42;98469.63;;;2.38;100.00
32747;BME280;19118;50.860;13.662;2023-02-14T15:59:43;98474.84;;;2.01;100.00
32747;BME280;19118;50.860;13.662;2023-02-14T16:04:44;98485.72;;;1.69;100.00
32747;BME280;19118;50.860;13.662;2023-02-14T16:09:45;98497.00;;;1.44;100.00
32747;BME280;19118;50.860;13.662;2023-02-14T16:14:59;98499.97;;;1.13;100.00
32747;BME280;19118;50.860;13.662;2023-02-14T16:25:20;98505.53;;;0.54;100.00
32747;BME280;19118;50.860;13.662;2023-02-14T16:30:21;98509.78;;;0.28;100.00
32747;BME280;19118;50.860;13.662;2023-02-14T16:35:21;98522.53;;;0.05;100.00
32747;BME280;19118;50.860;13.662;2023-02-14T16:40:24;98524.69;;;-0.16;100.00
32747;BME280;19118;50.860;13.662;2023-02-14T16:45:25;98531.91;;;-0.36;100.00
32747;BME280;19118;50.860;13.662;2023-02-14T16:50:26;98537.28;;;-0.53;100.00
32747;BME280;19118;50.860;13.662;2023-02-14T16:55:26;98535.56;;;-0.68;100.00
32747;BME280;19118;50.860;13.662;2023-02-14T17:00:29;98548.78;;;-0.87;100.00
32747;BME280;19118;50.860;13.662;2023-02-14T17:05:31;98547.06;;;-1.02;100.00
32747;BME280;19118;50.860;13.662;2023-02-14T17:10:32;98545.47;;;-1.05;100.00
32747;BME280;19118;50.860;13.662;2023-02-14T17:15:33;98545.84;;;-1.11;100.00
32747;BME280;19118;50.860;13.662;2023-02-14T17:20:34;98540.22;;;-1.19;100.00
32747;BME280;19118;50.860;13.662;2023-02-14T17:25:35;98542.59;;;-1.30;100.00
32747;BME280;19118;50.860;13.662;2023-02-14T17:30:35;98545.03;;;-1.43;100.00
32747;BME280;19118;50.860;13.662;2023-02-14T17:35:36;98548.13;;;-1.52;100.00
32747;BME280;19118;50.860;13.662;2023-02-14T17:40:37;98541.84;;;-1.64;100.00
32747;BME280;19118;50.860;13.662;2023-02-14T17:45:37;98552.31;;;-1.65;100.00
32747;BME280;19118;50.860;13.662;2023-02-14T17:50:37;98544.53;;;-1.81;100.00
32747;BME280;19118;50.860;13.662;2023-02-14T17:55:38;98532.63;;;-2.01;100.00
32747;BME280;19118;50.860;13.662;2023-02-14T18:00:38;98521.25;;;-2.14;100.00
32747;BME280;19118;50.860;13.662;2023-02-14T18:05:38;98524.59;;;-2.12;100.00
32747;BME280;19118;50.860;13.662;2023-02-14T18:10:39;98530.34;;;-2.23;100.00
32747;BME280;19118;50.860;13.662;2023-02-14T18:15:39;98530.78;;;-2.15;100.00
32747;BME280;19118;50.860;13.662;2023-02-14T18:20:40;98524.03;;;-2.35;100.00
32747;BME280;19118;50.860;13.662;2023-02-14T18:25:48;98535.72;;;-2.27;100.00
32747;BME280;19118;50.860;13.662;2023-02-14T18:30:48;98531.38;;;-2.27;100.00
32747;BME280;19118;50.860;13.662;2023-02-14T18:35:49;98535.22;;;-2.34;100.00
32747;BME280;19118;50.860;13.662;2023-02-14T18:40:49;98534.31;;;-2.33;100.00
32747;BME280;19118;50.860;13.662;2023-02-14T18:45:49;98531.09;;;-2.38;100.00
32747;BME280;19118;50.860;13.662;2023-02-14T18:50:50;98538.69;;;-2.51;100.00
32747;BME280;19118;50.860;13.662;2023-02-14T18:55:50;98530.53;;;-2.43;100.00
32747;BME280;19118;50.860;13.662;2023-02-14T19:00:50;98527.06;;;-2.59;100.00
32747;BME280;19118;50.860;13.662;2023-02-14T19:05:51;98520.41;;;-2.65;100.00
32747;BME280;19118;50.860;13.662;2023-02-14T19:10:52;98511.28;;;-2.72;100.00
32747;BME280;19118;50.860;13.662;2023-02-14T19:15:54;98517.91;;;-2.67;100.00
32747;BME280;19118;50.860;13.662;2023-02-14T19:20:55;98510.06;;;-2.65;100.00
32747;BME280;19118;50.860;13.662;2023-02-14T19:25:55;98505.88;;;-2.68;100.00
32747;BME280;19118;50.860;13.662;2023-02-14T19:30:57;98509.91;;;-2.62;100.00
32747;BME280;19118;50.860;13.662;2023-02-14T19:36:01;98505.06;;;-2.68;100.00
32747;BME280;19118;50.860;13.662;2023-02-14T19:41:01;98512.56;;;-2.64;100.00
32747;BME280;19118;50.860;13.662;2023-02-14T19:46:02;98514.25;;;-2.63;100.00
32747;BME280;19118;50.860;13.662;2023-02-14T19:51:03;98509.06;;;-2.63;100.00
32747;BME280;19118;50.860;13.662;2023-02-14T19:56:03;98511.53;;;-2.59;100.00
32747;BME280;19118;50.860;13.662;2023-02-14T20:01:03;98510.22;;;-2.68;100.00
32747;BME280;19118;50.860;13.662;2023-02-14T20:06:04;98517.09;;;-2.67;100.00
32747;BME280;19118;50.860;13.662;2023-02-14T20:11:04;98513.56;;;-2.66;100.00
32747;BME280;19118;50.860;13.662;2023-02-14T20:16:05;98506.06;;;-2.71;100.00
32747;BME280;19118;50.860;13.662;2023-02-14T20:21:05;98504.69;;;-2.78;100.00
32747;BME280;19118;50.860;13.662;2023-02-14T20:26:13;98500.41;;;-2.96;100.00
32747;BME280;19118;50.860;13.662;2023-02-14T20:31:15;98497.81;;;-2.96;100.00
32747;BME280;19118;50.860;13.662;2023-02-14T20:36:19;98497.00;;;-2.97;100.00
32747;BME280;19118;50.860;13.662;2023-02-14T20:41:19;98503.41;;;-3.04;100.00
32747;BME280;19118;50.860;13.662;2023-02-14T20:46:20;98492.66;;;-3.13;100.00
32747;BME280;19118;50.860;13.662;2023-02-14T20:51:20;98490.91;;;-3.13;100.00
32747;BME280;19118;50.860;13.662;2023-02-14T20:56:22;98480.34;;;-3.26;100.00
32747;BME280;19118;50.860;13.662;2023-02-14T21:01:23;98486.94;;;-3.20;100.00
32747;BME280;19118;50.860;13.662;2023-02-14T21:06:26;98484.91;;;-3.13;100.00
32747;BME280;19118;50.860;13.662;2023-02-14T21:11:27;98488.41;;;-3.14;100.00
32747;BME280;19118;50.860;13.662;2023-02-14T21:16:28;98486.34;;;-3.25;100.00
32747;BME280;19118;50.860;13.662;2023-02-14T21:21:33;98485.63;;;-3.29;100.00
32747;BME280;19118;50.860;13.662;2023-02-14T21:26:35;98482.38;;;-3.32;100.00
32747;BME280;19118;50.860;13.662;2023-02-14T21:31:35;98472.78;;;-3.30;100.00
32747;BME280;19118;50.860;13.662;2023-02-14T21:36:36;98476.38;;;-3.33;100.00
32747;BME280;19118;50.860;13.662;2023-02-14T21:41:36;98465.84;;;-3.30;100.00
32747;BME280;19118;50.860;13.662;2023-02-14T21:46:37;98469.69;;;-3.37;100.00
32747;BME280;19118;50.860;13.662;2023-02-14T21:51:38;98469.28;;;-3.46;100.00
32747;BME280;19118;50.860;13.662;2023-02-14T21:56:40;98462.03;;;-3.57;100.00
32747;BME280;19118;50.860;13.662;2023-02-14T22:01:41;98455.34;;;-3.61;100.00
32747;BME280;19118;50.860;13.662;2023-02-14T22:06:41;98447.28;;;-3.72;100.00
32747;BME280;19118;50.860;13.662;2023-02-14T22:11:42;98435.25;;;-3.73;100.00
32747;BME280;19118;50.860;13.662;2023-02-14T22:16:42;98441.88;;;-3.68;100.00
32747;BME280;19118;50.860;13.662;2023-02-14T22:21:42;98439.97;;;-3.64;100.00
32747;BME280;19118;50.860;13.662;2023-02-14T22:26:43;98430.53;;;-3.83;100.00
32747;BME280;19118;50.860;13.662;2023-02-14T22:31:46;98431.44;;;-3.84;100.00
32747;BME280;19118;50.860;13.662;2023-02-14T22:36:46;98429.13;;;-3.90;100.00
32747;BME280;19118;50.860;13.662;2023-02-14T22:41:47;98429.78;;;-3.85;100.00
32747;BME280;19118;50.860;13.662;2023-02-14T22:46:48;98430.06;;;-3.91;100.00
32747;BME280;19118;50.860;13.662;2023-02-14T22:51:48;98427.75;;;-3.97;100.00
32747;BME280;19118;50.860;13.662;2023-02-14T22:56:49;98430.53;;;-3.83;100.00
32747;BME280;19118;50.860;13.662;2023-02-14T23:01:53;98428.97;;;-3.87;100.00
32747;BME280;19118;50.860;13.662;2023-02-14T23:06:54;98412.13;;;-3.94;100.00
32747;BME280;19118;50.860;13.662;2023-02-14T23:11:54;98417.13;;;-3.91;100.00
32747;BME280;19118;50.860;13.662;2023-02-14T23:16:55;98398.56;;;-3.99;100.00
32747;BME280;19118;50.860;13.662;2023-02-14T23:22:50;98391.88;;;-4.03;100.00
32747;BME280;19118;50.860;13.662;2023-02-14T23:27:50;98390.97;;;-4.02;100.00
32747;BME280;19118;50.860;13.662;2023-02-14T23:32:51;98390.47;;;-4.10;100.00
32747;BME280;19118;50.860;13.662;2023-02-14T23:37:51;98383.94;;;-4.17;100.00
32747;BME280;19118;50.860;13.662;2023-02-14T23:42:52;98373.63;;;-4.17;100.00
32747;BME280;19118;50.860;13.662;2023-02-14T23:47:53;98369.13;;;-4.14;100.00
32747;BME280;19118;50.860;13.662;2023-02-14T23:52:54;98370.72;;;-4.11;100.00
32747;BME280;19118;50.860;13.662;2023-02-14T23:57:55;98369.28;;;-4.17;100.00
